Fort Meade, MD

4:56 AM EDT on July 23, 2017 (GMT -0400)
Tipton

Weather History for KFME - February, 2013

Change the Weather History Date:

Sunday, February 24, 2013

  Actual Average (KBWI) Record (KBWI)
Temperature  
Mean Temperature 42 °F -  
Max Temperature 51 °F 47 °F 79 °F (1985)
Min Temperature 32 °F 31 °F 2 °F (1873)
Degree Days  
Heating Degree Days 24    
Moisture  
Dew Point 30 °F    
Average Humidity 67    
Maximum Humidity 100    
Minimum Humidity 35    
Precipitation  
Precipitation 0.00 in - - ()
Sea Level Pressure  
Sea Level Pressure 29.93 in    
Wind  
Wind Speed 7 mph (NW)    
Max Wind Speed 23 mph    
Max Gust Speed 29 mph    
Visibility 8 miles    
Events      
Averages and records for this station are not official NWS values.
T = Trace of Precipitation, MM = Missing Value Source: NWS Daily Summary

Daily Weather History Graph

Daily Weather History Graph

Search for Another Location

Airport or City:

Trip Planner

Search our weather history database for the weather conditions in past years. The results will help you decide how hot, cold, wet, or windy it might be!

Date:

Astronomy

Feb. 24, 2013 Rise Set
Actual Time 6:46 AM EST 5:54 PM EST
Civil Twilight 6:19 AM EST 6:21 PM EST
Nautical Twilight 5:48 AM EST 6:52 PM EST
Astronomical Twilight 5:17 AM EST 7:23 PM EST
Moon 5:03 PM EST (2/24) 5:42 AM EST (2/24)
Length of Visible Light 12h 02m
Length of Day
11h 08m
Waxing Gibbous, 99% of the Moon is Illuminated
Feb 24
Waxing Gibbous
Feb 25
Full
Mar 4
Last Quarter
Mar 11
New
Mar 19
First Quarter

Hourly Weather History & Observations

Time (EST) Temp. Windchill Dew Point Humidity Pressure Visibility Wind Dir Wind Speed Gust Speed Precip Events Conditions
12:15 AM 41.0 °F 39.0 °F 41.0 °F 100% 29.83 in 3.0 mi North 3.5 mph - N/A   Overcast
12:33 AM 41.0 °F - 39.2 °F 93% 29.84 in 3.0 mi Calm Calm - N/A   Overcast
12:54 AM 41.0 °F 38.0 °F 39.2 °F 93% 29.84 in 5.0 mi North 4.6 mph - N/A   Overcast
1:15 AM 41.0 °F 39.0 °F 39.2 °F 93% 29.85 in 4.0 mi WNW 3.5 mph - N/A   Overcast
1:33 AM 41.0 °F 38.0 °F 39.2 °F 93% 29.86 in 4.0 mi WNW 4.6 mph - N/A   Overcast
1:54 AM 41.0 °F 39.0 °F 37.4 °F 87% 29.85 in 4.0 mi NW 3.5 mph - N/A   Overcast
2:15 AM 41.0 °F 38.0 °F 37.4 °F 87% 29.84 in 3.0 mi NW 4.6 mph - N/A   Overcast
2:36 AM 41.0 °F 37.1 °F 37.4 °F 87% 29.84 in 4.0 mi North 5.8 mph - N/A   Overcast
2:54 AM 41.0 °F 36.4 °F 37.4 °F 87% 29.83 in 5.0 mi North 6.9 mph - N/A   Overcast
3:15 AM 39.2 °F 35.0 °F 37.4 °F 93% 29.82 in 5.0 mi North 5.8 mph - N/A   Overcast
3:36 AM 39.2 °F 35.9 °F 37.4 °F 93% 29.82 in 5.0 mi North 4.6 mph - N/A   Overcast
3:54 AM 39.2 °F - 37.4 °F 93% 29.82 in 5.0 mi Calm Calm - N/A   Overcast
4:15 AM 39.2 °F - 37.4 °F 93% 29.81 in 4.0 mi Calm Calm - N/A   Overcast
4:54 AM 39.2 °F 37.0 °F 37.4 °F 93% 29.83 in 4.0 mi NNW 3.5 mph - N/A   Overcast
5:15 AM 39.2 °F 35.9 °F 37.4 °F 93% 29.84 in 4.0 mi NNW 4.6 mph - N/A   Overcast
5:36 AM 39.2 °F 37.0 °F 37.4 °F 93% 29.83 in 5.0 mi NW 3.5 mph - N/A   Overcast
5:54 AM 39.2 °F 37.0 °F 37.4 °F 93% 29.84 in 5.0 mi WNW 3.5 mph - N/A   Overcast
6:15 AM 39.2 °F 37.0 °F 37.4 °F 93% 29.85 in 4.0 mi WNW 3.5 mph - N/A   Overcast
6:36 AM 39.2 °F 35.9 °F 37.4 °F 93% 29.86 in 5.0 mi WNW 4.6 mph - N/A   Overcast
6:54 AM 39.2 °F 37.0 °F 37.4 °F 93% 29.87 in 5.0 mi NW 3.5 mph - N/A   Overcast
7:15 AM 39.2 °F 37.0 °F 37.4 °F 93% 29.88 in 5.0 mi WNW 3.5 mph - N/A   Overcast
7:36 AM 39.2 °F 37.0 °F 37.4 °F 93% 29.88 in 5.0 mi WNW 3.5 mph - N/A   Overcast
7:54 AM 39.2 °F - 37.4 °F 93% 29.87 in 7.0 mi Calm Calm - N/A   Scattered Clouds
8:15 AM 41.0 °F - 37.4 °F 87% 29.88 in 7.0 mi Calm Calm - N/A   Clear
8:36 AM 42.8 °F - 37.4 °F 81% 29.88 in 10.0 mi Calm Calm - N/A   Clear
8:54 AM 44.6 °F 41.4 °F 37.4 °F 76% 29.89 in 10.0 mi NW 5.8 mph - N/A   Clear
9:15 AM 44.6 °F 40.2 °F 37.4 °F 76% 29.88 in 10.0 mi NW 8.1 mph - N/A   Clear
9:36 AM 46.4 °F 42.4 °F 37.4 °F 71% 29.89 in 10.0 mi NW 8.1 mph - N/A   Clear
9:54 AM 46.4 °F 40.1 °F 35.6 °F 66% 29.89 in 10.0 mi West 15.0 mph 19.6 mph N/A   Mostly Cloudy
10:15 AM 46.4 °F 40.7 °F 33.8 °F 62% 29.90 in 10.0 mi WNW 12.7 mph 18.4 mph N/A   Mostly Cloudy
10:36 AM 48.2 °F - 32.0 °F 54% 29.90 in 10.0 mi NW 10.4 mph 20.7 mph N/A   Overcast
10:57 AM 50.0 °F - 32.0 °F 50% 29.91 in 10.0 mi WNW 19.6 mph 26.5 mph N/A   Scattered Clouds
11:15 AM 48.2 °F - 32.0 °F 54% 29.91 in 10.0 mi WNW 16.1 mph 27.6 mph N/A   Clear
11:36 AM 48.2 °F - 30.2 °F 50% 29.92 in 10.0 mi WNW 16.1 mph 24.2 mph N/A   Clear
11:57 AM 50.0 °F - 28.4 °F 43% 29.91 in 10.0 mi West 17.3 mph 24.2 mph N/A   Scattered Clouds
12:15 PM 50.0 °F - 28.4 °F 43% 29.91 in 10.0 mi WNW 15.0 mph 26.5 mph N/A   Scattered Clouds
12:36 PM 50.0 °F - 28.4 °F 43% 29.90 in 10.0 mi West 18.4 mph 27.6 mph N/A   Clear
12:57 PM 50.0 °F - 26.6 °F 40% 29.89 in 10.0 mi West 23.0 mph 27.6 mph N/A   Clear
1:15 PM 50.0 °F - 26.6 °F 40% 29.88 in 10.0 mi WNW 16.1 mph 26.5 mph N/A   Clear
1:36 PM 50.0 °F - 28.4 °F 43% 29.88 in 10.0 mi NW 13.8 mph 24.2 mph N/A   Clear
1:57 PM 51.8 °F - 26.6 °F 38% 29.88 in 10.0 mi WNW 16.1 mph 25.3 mph N/A   Clear
2:15 PM 51.8 °F - 26.6 °F 38% 29.88 in 10.0 mi NW 18.4 mph 24.2 mph N/A   Clear
2:36 PM 50.0 °F - 23.0 °F 35% 29.88 in 10.0 mi NW 16.1 mph 28.8 mph N/A   Clear
2:57 PM 51.8 °F - 24.8 °F 35% 29.89 in 10.0 mi WNW 16.1 mph 23.0 mph N/A   Clear
3:15 PM 46.4 °F 40.7 °F 24.8 °F 43% 29.90 in 10.0 mi NW 12.7 mph 21.9 mph N/A   Scattered Clouds
3:36 PM 50.0 °F - 24.8 °F 37% 29.91 in 10.0 mi NNW 10.4 mph 19.6 mph N/A   Mostly Cloudy
3:57 PM 50.0 °F - 23.0 °F 35% 29.91 in 10.0 mi NW 12.7 mph 25.3 mph N/A   Scattered Clouds
4:15 PM 46.4 °F 39.8 °F 24.8 °F 43% 29.92 in 10.0 mi NW 16.1 mph 24.2 mph N/A   Scattered Clouds
4:36 PM 44.6 °F 37.4 °F 24.8 °F 46% 29.94 in 10.0 mi NNW 16.1 mph 24.2 mph N/A   Scattered Clouds
4:57 PM 42.8 °F 36.6 °F 24.8 °F 49% 29.95 in 10.0 mi NNW 11.5 mph 24.2 mph N/A   Scattered Clouds
5:15 PM 41.0 °F 33.1 °F 24.8 °F 53% 29.97 in 10.0 mi NNW 15.0 mph 21.9 mph N/A   Clear
5:36 PM 39.2 °F 32.5 °F 24.8 °F 56% 29.98 in 10.0 mi NW 10.4 mph 21.9 mph N/A   Clear
5:57 PM 37.4 °F 28.5 °F 23.0 °F 56% 29.99 in 10.0 mi NW 15.0 mph 27.6 mph N/A   Clear
6:15 PM 37.4 °F 28.5 °F 23.0 °F 56% 30.01 in 10.0 mi NW 15.0 mph 23.0 mph N/A   Clear
6:36 PM 35.6 °F 28.6 °F 23.0 °F 60% 30.03 in 10.0 mi NNW 9.2 mph 23.0 mph N/A   Clear
6:57 PM 35.6 °F 27.1 °F 23.0 °F 60% 30.05 in 10.0 mi NW 12.7 mph 20.7 mph N/A   Clear
7:15 PM 35.6 °F 27.1 °F 21.2 °F 56% 30.06 in 10.0 mi NW 12.7 mph 24.2 mph N/A   Clear
7:36 PM 33.8 °F 25.8 °F 21.2 °F 60% 30.07 in 10.0 mi NW 10.4 mph 20.7 mph N/A   Clear
7:57 PM 33.8 °F 26.4 °F 21.2 °F 60% 30.08 in 10.0 mi NW 9.2 mph 19.6 mph N/A   Clear
8:18 PM 33.8 °F 24.3 °F 21.2 °F 60% 30.10 in 10.0 mi NW 13.8 mph 19.6 mph N/A   Clear
8:36 PM 33.8 °F 24.8 °F 21.2 °F 60% 30.10 in 10.0 mi NW 12.7 mph 23.0 mph N/A   Clear
8:57 PM 33.8 °F 27.7 °F 21.2 °F 60% 30.10 in 10.0 mi NW 6.9 mph 19.6 mph N/A   Clear
9:18 PM 32.0 °F 24.2 °F 21.2 °F 64% 30.11 in 10.0 mi NW 9.2 mph 17.3 mph N/A   Clear
9:36 PM 32.0 °F 26.4 °F 19.4 °F 60% 30.12 in 10.0 mi WNW 5.8 mph - N/A   Clear
9:57 PM 32.0 °F 25.6 °F 19.4 °F 60% 30.12 in 10.0 mi WNW 6.9 mph - N/A   Clear
10:18 PM 32.0 °F 24.8 °F 19.4 °F 60% 30.13 in 10.0 mi WNW 8.1 mph - N/A   Clear
10:36 PM 32.0 °F 24.8 °F 19.4 °F 60% 30.13 in 10.0 mi WNW 8.1 mph - N/A   Clear
10:57 PM 32.0 °F 26.4 °F 19.4 °F 60% 30.13 in 10.0 mi WNW 5.8 mph - N/A   Clear
11:18 PM 32.0 °F 25.6 °F 19.4 °F 60% 30.13 in 10.0 mi West 6.9 mph - N/A   Clear
11:36 PM 32.0 °F 25.6 °F 19.4 °F 60% 30.13 in 10.0 mi WNW 6.9 mph - N/A   Clear
11:57 PM 32.0 °F 25.6 °F 21.2 °F 64% 30.13 in 10.0 mi WNW 6.9 mph - N/A   Clear